Time;durP1;ratioP1;P1;durP2;ratioP2;P2;SDS_P1;SDS_P2;PMS_P1;PMS_P2;Temp;Humidity;BMP_temperature;BMP_pressure;BME280_temperature;BME280_humidity;BME280_pressure;Samples;Min_cycle;Max_cycle;Signal;HPM_P1;HPM_P2
2024/04/04 00:02:05;;;;;;;31.65;29.23;;;;;;;10.17;100.00;101017.88;5101253;28;20513;-75
2024/04/04 00:04:38;;;;;;;31.52;29.20;;;;;;;10.11;100.00;101026.63;5105840;28;20055;-75
2024/04/04 00:07:04;;;;;;;36.47;33.88;;;;;;;9.83;100.00;101030.13;5102145;28;20438;-75
2024/04/04 00:09:31;;;;;;;30.95;29.25;;;;;;;9.81;100.00;101031.31;5096400;28;20048;-75
2024/04/04 00:11:59;;;;;;;37.80;34.65;;;;;;;10.04;100.00;101015.94;5104194;28;20503;-75
2024/04/04 00:14:38;;;;;;;31.95;30.05;;;;;;;10.19;100.00;101021.13;5093290;28;20047;-74
2024/04/04 00:17:05;;;;;;;30.40;28.80;;;;;;;9.78;100.00;101031.72;5097108;28;20058;-75
2024/04/04 00:19:43;;;;;;;31.63;28.90;;;;;;;10.00;100.00;101033.28;5100737;28;20104;-76
2024/04/04 00:22:09;;;;;;;32.15;29.67;;;;;;;9.87;100.00;101041.16;5093992;28;20059;-75
2024/04/04 00:24:36;;;;;;;29.17;27.38;;;;;;;10.12;100.00;101028.25;5096365;28;20483;-75
2024/04/04 00:27:05;;;;;;;27.65;25.95;;;;;;;9.58;100.00;101040.31;5105998;28;20510;-75
2024/04/04 00:29:33;;;;;;;31.13;29.23;;;;;;;9.59;100.00;101049.94;5098341;28;20051;-75
2024/04/04 00:32:01;;;;;;;30.15;28.40;;;;;;;9.67;100.00;101041.00;5096787;28;20842;-75
2024/04/04 00:34:28;;;;;;;29.50;27.50;;;;;;;9.89;100.00;101035.66;5094773;28;20505;-77
2024/04/04 00:36:55;;;;;;;30.15;28.27;;;;;;;9.63;100.00;101037.09;5096706;28;20048;-78
2024/04/04 00:39:22;;;;;;;30.63;28.92;;;;;;;9.61;100.00;101034.63;5102500;28;20056;-77
2024/04/04 00:41:48;;;;;;;32.25;29.95;;;;;;;9.83;100.00;101032.78;5099038;28;20781;-77
2024/04/04 00:44:16;;;;;;;33.75;31.40;;;;;;;9.87;100.00;101033.22;5102126;28;20127;-78
2024/04/04 00:46:43;;;;;;;29.70;28.00;;;;;;;9.48;100.00;101033.72;5099067;28;20052;-77
2024/04/04 00:49:11;;;;;;;33.17;31.17;;;;;;;9.67;100.00;101038.34;5106838;28;20134;-77
2024/04/04 00:51:37;;;;;;;31.25;29.45;;;;;;;9.75;100.00;101034.75;5110921;28;20109;-78
2024/04/04 00:54:12;;;;;;;33.13;31.33;;;;;;;9.32;100.00;101042.72;5111357;27;20135;-77
2024/04/04 00:56:39;;;;;;;33.92;32.13;;;;;;;9.37;100.00;101041.16;5094201;28;20063;-78
2024/04/04 00:59:11;;;;;;;33.45;31.33;;;;;;;9.45;100.00;101034.09;5106207;28;20131;-78
2024/04/04 01:01:41;;;;;;;33.28;31.48;;;;;;;9.22;100.00;101039.56;5091994;28;20055;-78
2024/04/04 01:04:08;;;;;;;34.00;32.20;;;;;;;9.16;100.00;101036.66;5099430;28;20075;-77
2024/04/04 01:06:35;;;;;;;32.35;30.65;;;;;;;9.25;100.00;101029.41;5105420;28;20043;-77
2024/04/04 01:09:03;;;;;;;33.08;31.27;;;;;;;9.31;100.00;101025.19;5091219;28;20056;-77
2024/04/04 01:11:29;;;;;;;33.45;30.40;;;;;;;9.12;100.00;101022.16;5101938;28;20489;-77
2024/04/04 01:14:06;;;;;;;29.73;28.02;;;;;;;9.27;100.00;101024.75;5108423;28;20070;-77
2024/04/04 01:16:32;;;;;;;32.70;31.10;;;;;;;9.33;100.00;101025.81;5099059;28;20112;-75
2024/04/04 01:19:01;;;;;;;35.28;33.47;;;;;;;8.90;100.00;101015.22;5101147;28;20044;-76
2024/04/04 01:21:27;;;;;;;33.33;31.63;;;;;;;8.98;100.00;101020.38;5100377;28;20658;-78
2024/04/04 01:23:56;;;;;;;34.72;32.92;;;;;;;9.18;100.00;101015.28;5096128;28;20047;-76
2024/04/04 01:26:22;;;;;;;32.70;30.90;;;;;;;9.03;100.00;101011.88;5094421;28;20741;-75
2024/04/04 01:28:50;;;;;;;35.08;33.17;;;;;;;9.00;100.00;101012.25;5097353;28;20109;-76
2024/04/04 01:31:22;;;;;;;31.83;30.02;;;;;;;9.17;100.00;101011.00;5100927;28;20070;-76
2024/04/04 01:33:56;;;;;;;34.08;32.28;;;;;;;9.49;100.00;101004.34;5092473;28;20138;-76
2024/04/04 01:36:22;;;;;;;34.83;33.03;;;;;;;9.55;100.00;101006.22;5093914;27;20052;-75
2024/04/04 01:38:52;;;;;;;34.67;32.97;;;;;;;9.55;100.00;101016.00;5100450;28;20093;-76
2024/04/04 01:41:21;;;;;;;34.08;32.38;;;;;;;9.60;100.00;101001.16;5098731;28;20058;-76
2024/04/04 01:43:52;;;;;;;34.65;32.85;;;;;;;9.67;100.00;101001.22;5098102;28;20416;-75
2024/04/04 01:46:27;;;;;;;34.63;32.72;;;;;;;9.63;100.00;101003.44;5098231;28;20048;-75
2024/04/04 01:49:12;;;;;;;36.25;34.25;;;;;;;9.45;100.00;101016.34;5097605;28;20403;-75
2024/04/04 01:51:40;;;;;;;34.00;32.10;;;;;;;9.41;100.00;101025.69;5109524;28;20115;-75
2024/04/04 01:54:06;;;;;;;39.65;37.65;;;;;;;9.16;100.00;101027.91;5097342;28;20794;-75
2024/04/04 01:56:35;;;;;;;35.97;34.17;;;;;;;9.32;100.00;101014.41;5096480;28;20163;-78
2024/04/04 01:59:04;;;;;;;33.00;31.30;;;;;;;9.17;100.00;101011.00;5094855;28;20447;-75
2024/04/04 02:01:32;;;;;;;34.53;32.83;;;;;;;8.92;100.00;101014.00;5090440;28;20051;-78
2024/04/04 02:03:58;;;;;;;36.53;34.78;;;;;;;8.91;100.00;101007.06;5089628;28;20052;-77
2024/04/04 02:06:28;;;;;;;35.35;33.65;;;;;;;8.69;100.00;101008.88;5109843;28;20051;-77
2024/04/04 02:08:54;;;;;;;36.85;35.17;;;;;;;8.84;100.00;101015.97;5092056;28;20133;-77
2024/04/04 02:11:21;;;;;;;34.15;32.55;;;;;;;8.87;100.00;101016.41;5101564;28;20055;-77
2024/04/04 02:13:49;;;;;;;37.70;35.75;;;;;;;9.00;100.00;101010.41;5097408;28;20054;-77
2024/04/04 02:16:17;;;;;;;38.30;36.40;;;;;;;8.97;100.00;101016.09;5097320;28;20125;-77
2024/04/04 02:18:43;;;;;;;32.75;31.15;;;;;;;8.78;100.00;101017.53;5104479;28;20051;-77
2024/04/04 02:21:10;;;;;;;30.85;29.35;;;;;;;8.86;100.00;101008.63;5100651;28;20055;-78
2024/04/04 02:23:36;;;;;;;31.85;30.00;;;;;;;8.73;100.00;101024.38;5101875;28;20043;-77
2024/04/04 02:26:03;;;;;;;30.92;29.42;;;;;;;8.69;100.00;101016.81;5096826;28;20047;-77
2024/04/04 02:28:30;;;;;;;34.28;32.47;;;;;;;8.98;100.00;101011.59;5100321;28;20086;-75
2024/04/04 02:30:58;;;;;;;38.45;36.65;;;;;;;8.69;100.00;101011.50;5100405;28;20048;-75
2024/04/04 02:33:25;;;;;;;31.98;30.48;;;;;;;8.51;100.00;101004.97;5100022;28;20039;-78
2024/04/04 02:35:54;;;;;;;27.63;26.33;;;;;;;8.80;100.00;101001.44;5100697;28;20067;-75
2024/04/04 02:38:23;;;;;;;30.30;28.80;;;;;;;8.53;100.00;100998.47;5096717;28;20060;-78
2024/04/04 02:40:52;;;;;;;30.80;29.20;;;;;;;8.70;100.00;100996.44;5102956;28;20047;-77
2024/04/04 02:43:18;;;;;;;31.02;29.52;;;;;;;8.81;100.00;100997.78;5099377;28;20074;-77
2024/04/04 02:45:45;;;;;;;31.90;30.40;;;;;;;8.79;100.00;100997.97;5109940;28;20051;-77
2024/04/04 02:48:13;;;;;;;34.17;32.58;;;;;;;8.69;100.00;101006.22;5106227;28;20059;-77
2024/04/04 02:50:40;;;;;;;31.85;30.25;;;;;;;8.66;100.00;100996.00;5089188;28;20078;-77
2024/04/04 02:53:06;;;;;;;32.75;31.25;;;;;;;8.69;100.00;101000.09;5101684;28;20054;-77
2024/04/04 02:55:39;;;;;;;31.85;30.35;;;;;;;8.82;100.00;101002.06;5105623;28;20048;-78
2024/04/04 02:58:05;;;;;;;29.83;28.23;;;;;;;8.52;100.00;101001.31;5102608;28;20051;-78
2024/04/04 03:00:35;;;;;;;33.35;31.75;;;;;;;8.49;100.00;100997.22;5090987;28;20056;-78
2024/04/04 03:03:01;;;;;;;34.17;32.20;;;;;;;8.32;100.00;100996.59;5095040;28;20048;-77
2024/04/04 03:05:40;;;;;;;33.42;31.92;;;;;;;8.32;100.00;100993.94;5099135;28;20082;-78
2024/04/04 03:08:10;;;;;;;32.80;31.35;;;;;;;7.99;100.00;100986.38;5101181;28;20109;-77
2024/04/04 03:10:37;;;;;;;28.38;27.17;;;;;;;7.83;100.00;100991.81;5103163;28;20097;-77
2024/04/04 03:13:04;;;;;;;29.42;28.23;;;;;;;7.84;100.00;100995.28;5099996;28;20048;-78
2024/04/04 03:15:31;;;;;;;28.48;27.17;;;;;;;8.04;100.00;100999.84;5101834;28;20050;-75
2024/04/04 03:17:58;;;;;;;29.42;28.13;;;;;;;7.88;100.00;101002.69;5101471;28;20137;-75
2024/04/04 03:20:25;;;;;;;35.33;33.83;;;;;;;7.79;100.00;101007.22;5096891;28;20044;-75
2024/04/04 03:22:52;;;;;;;35.80;34.30;;;;;;;7.98;100.00;101002.41;5093631;28;20059;-75
2024/04/04 03:25:20;;;;;;;35.72;34.13;;;;;;;8.11;100.00;101002.63;5090537;28;20555;-75
2024/04/04 03:27:46;;;;;;;30.35;29.05;;;;;;;8.00;100.00;100993.28;5095668;28;20108;-75
2024/04/04 03:30:13;;;;;;;37.78;36.17;;;;;;;8.04;100.00;100997.19;5093653;28;20277;-78
2024/04/04 03:32:39;;;;;;;36.80;35.20;;;;;;;8.01;100.00;100994.09;5096383;28;20047;-77
2024/04/04 03:35:07;;;;;;;35.92;34.22;;;;;;;7.94;100.00;100995.84;5092961;28;20169;-77
2024/04/04 03:37:35;;;;;;;32.70;31.30;;;;;;;7.97;100.00;100998.94;5107756;28;20051;-77
2024/04/04 03:40:06;;;;;;;31.25;29.95;;;;;;;7.78;100.00;100997.66;5093328;28;20086;-75
2024/04/04 03:42:43;;;;;;;31.33;29.98;;;;;;;7.93;100.00;100994.22;5098628;28;20874;-76
2024/04/04 03:45:10;;;;;;;32.67;31.27;;;;;;;8.04;100.00;100993.75;5100440;28;20047;-77
2024/04/04 03:47:36;;;;;;;30.75;29.45;;;;;;;7.61;100.00;100998.00;5106396;28;20047;-75
2024/04/04 03:50:03;;;;;;;30.50;28.70;;;;;;;7.76;100.00;100998.84;5100110;28;20129;-75
2024/04/04 03:52:29;;;;;;;46.35;42.45;;;;;;;7.91;100.00;100999.69;5092930;28;20055;-76
2024/04/04 03:55:00;;;;;;;47.38;43.38;;;;;;;7.71;100.00;101009.13;5097421;28;20040;-76
2024/04/04 03:57:27;;;;;;;45.63;41.60;;;;;;;7.51;100.00;100996.44;5090059;28;20483;-75
2024/04/04 03:59:57;;;;;;;35.55;33.15;;;;;;;7.53;100.00;101006.81;5097341;28;20055;-77
2024/04/04 04:02:24;;;;;;;26.67;25.17;;;;;;;7.48;100.00;101009.19;5103904;28;20532;-78
2024/04/04 04:04:51;;;;;;;74.85;67.50;;;;;;;7.46;100.00;101005.88;5092102;28;20079;-77
2024/04/04 04:07:17;;;;;;;29.48;27.88;;;;;;;7.49;100.00;101009.00;5087637;28;20140;-78
2024/04/04 04:09:50;;;;;;;27.60;26.10;;;;;;;7.41;100.00;101009.03;5096573;28;20090;-78
2024/04/04 04:12:17;;;;;;;25.10;23.90;;;;;;;6.96;100.00;101012.50;5109736;28;20472;-76
2024/04/04 04:14:47;;;;;;;24.58;23.38;;;;;;;6.81;100.00;101009.81;5099638;28;20058;-77
2024/04/04 04:17:14;;;;;;;30.88;28.52;;;;;;;7.32;100.00;101005.69;5101068;28;20047;-77
2024/04/04 04:19:42;;;;;;;32.40;29.92;;;;;;;7.06;100.00;101008.66;5101682;28;20063;-78
2024/04/04 04:22:08;;;;;;;33.25;30.25;;;;;;;7.47;100.00;101010.16;5092548;28;20051;-78
2024/04/04 04:24:35;;;;;;;37.25;34.15;;;;;;;7.58;100.00;101004.47;5097570;28;20044;-77
2024/04/04 04:27:04;;;;;;;25.60;24.10;;;;;;;7.49;100.00;100998.41;5104429;28;20112;-77
2024/04/04 04:29:38;;;;;;;25.80;24.40;;;;;;;7.26;100.00;101001.09;5095560;28;20051;-77
2024/04/04 04:32:06;;;;;;;26.17;24.35;;;;;;;7.74;100.00;100995.53;5099207;28;20082;-75
2024/04/04 04:34:42;;;;;;;24.83;23.52;;;;;;;7.80;100.00;100997.47;5103519;28;20125;-76
2024/04/04 04:37:10;;;;;;;25.70;24.40;;;;;;;7.68;100.00;100994.44;5096475;28;20055;-77
2024/04/04 04:39:37;;;;;;;25.90;24.50;;;;;;;7.90;100.00;100990.09;5104652;28;20048;-77
2024/04/04 04:42:04;;;;;;;27.25;25.75;;;;;;;8.05;100.00;100984.81;5104540;28;20055;-78
2024/04/04 04:44:31;;;;;;;26.50;25.20;;;;;;;8.17;100.00;100998.38;5096036;28;20058;-78
2024/04/04 04:46:58;;;;;;;33.20;30.20;;;;;;;7.76;100.00;101004.94;5096082;28;20048;-75
2024/04/04 04:49:27;;;;;;;36.25;33.78;;;;;;;8.23;100.00;101008.28;5100966;28;20051;-76
2024/04/04 04:52:00;;;;;;;28.02;26.42;;;;;;;8.37;100.00;101010.06;5097867;28;20047;-78
2024/04/04 04:54:28;;;;;;;28.70;26.70;;;;;;;8.45;100.00;100993.31;5098820;28;20043;-78
2024/04/04 04:56:54;;;;;;;27.00;25.70;;;;;;;8.65;100.00;101007.59;5101136;28;20459;-75
2024/04/04 04:59:21;;;;;;;26.35;24.95;;;;;;;8.67;100.00;101002.09;5109890;28;20083;-75
2024/04/04 05:01:47;;;;;;;25.48;24.08;;;;;;;8.79;100.00;100999.81;5094714;28;20050;-75
2024/04/04 05:04:14;;;;;;;23.48;22.27;;;;;;;8.84;100.00;101005.38;5095836;28;20044;-76
2024/04/04 05:06:46;;;;;;;26.40;25.05;;;;;;;8.84;100.00;100997.41;5103266;28;20105;-76
2024/04/04 05:09:13;;;;;;;25.40;24.10;;;;;;;8.87;100.00;100997.88;5102803;28;20059;-76
2024/04/04 05:11:39;;;;;;;25.05;23.75;;;;;;;9.17;100.00;101001.22;5102143;28;20039;-75
2024/04/04 05:14:13;;;;;;;25.63;24.33;;;;;;;9.11;100.00;100998.50;5101933;28;20048;-75
2024/04/04 05:16:39;;;;;;;25.80;24.40;;;;;;;9.32;100.00;101008.25;5091915;28;20126;-76
2024/04/04 05:19:12;;;;;;;24.60;23.30;;;;;;;9.36;100.00;101015.66;5101757;28;20707;-75
2024/04/04 05:21:38;;;;;;;25.70;24.40;;;;;;;9.39;100.00;101006.50;5090933;28;20054;-77
2024/04/04 05:24:07;;;;;;;24.98;23.70;;;;;;;9.58;100.00;101010.31;5106455;28;20058;-77
2024/04/04 05:26:33;;;;;;;25.33;24.02;;;;;;;9.78;100.00;101010.50;5084914;28;20056;-78
2024/04/04 05:29:01;;;;;;;26.08;24.67;;;;;;;10.12;100.00;101014.97;5105230;28;20052;-77
2024/04/04 05:31:27;;;;;;;26.38;24.98;;;;;;;10.11;100.00;101007.22;5107266;28;20051;-77
2024/04/04 05:33:55;;;;;;;24.85;23.45;;;;;;;10.11;100.00;101007.22;5101616;28;20085;-77
2024/04/04 05:36:23;;;;;;;25.88;24.38;;;;;;;10.38;100.00;101009.03;5100655;28;20499;-77
2024/04/04 05:38:50;;;;;;;26.73;25.33;;;;;;;10.62;100.00;101013.03;5099669;28;20047;-77
2024/04/04 05:41:17;;;;;;;26.38;24.98;;;;;;;10.81;100.00;101006.13;5100035;28;20503;-77
2024/04/04 05:43:44;;;;;;;27.05;25.55;;;;;;;10.68;100.00;101008.72;5104405;28;20070;-75
2024/04/04 05:46:11;;;;;;;25.27;23.88;;;;;;;10.90;100.00;101004.09;5097550;28;20047;-75
2024/04/04 05:48:38;;;;;;;26.30;24.90;;;;;;;11.09;100.00;101005.97;5106198;28;20127;-75
2024/04/04 05:51:05;;;;;;;28.45;26.90;;;;;;;11.04;100.00;101008.41;5100743;28;20054;-76
2024/04/04 05:53:32;;;;;;;28.60;27.00;;;;;;;11.34;100.00;101008.84;5099603;28;20051;-76
2024/04/04 05:55:58;;;;;;;40.60;27.35;;;;;;;11.37;100.00;101007.63;5105368;28;20047;-76
2024/04/04 05:58:27;;;;;;;27.77;26.27;;;;;;;11.56;100.00;101006.00;5094836;28;20581;-75
2024/04/04 06:00:53;;;;;;;29.90;28.25;;;;;;;11.83;100.00;101004.97;5089086;28;20420;-75
2024/04/04 06:03:20;;;;;;;29.52;27.92;;;;;;;12.31;100.00;101009.16;5087648;28;20135;-75
2024/04/04 06:05:46;;;;;;;29.17;27.67;;;;;;;12.01;100.00;101001.69;5091268;28;20590;-75
2024/04/04 06:08:14;;;;;;;28.50;27.00;;;;;;;11.94;100.00;101002.72;5095728;28;20052;-75
2024/04/04 06:10:40;;;;;;;29.25;27.65;;;;;;;12.18;100.00;101003.91;5102331;28;20059;-75
2024/04/04 06:13:07;;;;;;;29.05;27.38;;;;;;;12.17;100.00;101005.75;5107592;28;20051;-76
2024/04/04 06:15:34;;;;;;;29.05;27.45;;;;;;;12.69;100.00;100997.75;5095778;28;20075;-75
2024/04/04 06:18:01;;;;;;;30.35;28.65;;;;;;;12.48;100.00;101001.53;5091632;28;20108;-76
2024/04/04 06:20:27;;;;;;;31.05;29.25;;;;;;;12.82;100.00;101013.66;5104459;28;20047;-75
2024/04/04 06:22:55;;;;;;;31.15;29.25;;;;;;;13.17;100.00;101014.09;5094538;28;20778;-76
2024/04/04 06:25:21;;;;;;;32.28;30.27;;;;;;;13.27;100.00;101018.97;5101079;28;20044;-75
2024/04/04 06:27:51;;;;;;;33.63;31.52;;;;;;;13.51;100.00;101025.34;5094558;28;20468;-77
2024/04/04 06:30:19;;;;;;;32.35;30.45;;;;;;;13.61;100.00;101023.00;5101629;28;20048;-77
2024/04/04 06:32:58;;;;;;;33.28;31.27;;;;;;;13.85;100.00;101020.53;5102628;28;20044;-77
2024/04/04 06:35:25;;;;;;;29.27;27.48;;;;;;;13.92;100.00;101013.28;5087353;28;20052;-78
2024/04/04 06:37:54;;;;;;;29.30;27.50;;;;;;;13.82;100.00;101008.44;5109081;28;20740;-77
2024/04/04 06:40:22;;;;;;;31.73;29.83;;;;;;;14.25;100.00;101012.09;5097348;28;20052;-77
2024/04/04 06:42:55;;;;;;;30.48;28.58;;;;;;;14.25;100.00;101020.97;5097964;28;20060;-76
2024/04/04 06:45:22;;;;;;;29.05;27.25;;;;;;;14.54;100.00;101034.63;5089716;28;20044;-76
2024/04/04 06:48:04;;;;;;;29.48;27.58;;;;;;;14.63;100.00;101028.75;5096978;28;20051;-75
2024/04/04 06:50:31;;;;;;;32.33;30.42;;;;;;;14.48;100.00;101040.84;5096460;28;20051;-77
2024/04/04 06:52:58;;;;;;;32.03;30.08;;;;;;;15.01;100.00;101035.66;5102419;28;20047;-77
2024/04/04 06:55:31;;;;;;;30.70;28.80;;;;;;;14.30;100.00;101044.31;5099597;28;20059;-78
2024/04/04 06:57:57;;;;;;;31.85;29.85;;;;;;;14.43;100.00;101037.00;5094152;28;20044;-75
2024/04/04 07:00:27;;;;;;;29.60;27.83;;;;;;;15.09;100.00;101037.19;5108490;28;20119;-75
2024/04/04 07:02:53;;;;;;;30.67;28.83;;;;;;;15.11;100.00;101033.25;5100170;28;20587;-75
2024/04/04 07:05:23;;;;;;;30.73;28.83;;;;;;;15.94;100.00;101036.88;5101208;28;20047;-75
2024/04/04 07:07:50;;;;;;;32.67;30.67;;;;;;;16.61;100.00;101036.41;5096087;28;20527;-76
2024/04/04 07:10:17;;;;;;;32.35;30.35;;;;;;;16.78;100.00;101017.72;5093227;28;20052;-75
2024/04/04 07:12:52;;;;;;;32.47;30.55;;;;;;;16.44;100.00;101022.13;5103759;28;20055;-76
2024/04/04 07:15:19;;;;;;;31.42;29.48;;;;;;;16.71;100.00;101014.34;5088517;28;20164;-76
2024/04/04 07:17:48;;;;;;;33.13;31.02;;;;;;;16.98;100.00;101014.59;5097018;28;20052;-76
2024/04/04 07:20:15;;;;;;;33.88;31.67;;;;;;;17.09;100.00;101015.59;5104208;28;20134;-76
2024/04/04 07:22:42;;;;;;;34.40;32.13;;;;;;;17.45;100.00;101011.63;5104902;28;20059;-76
2024/04/04 07:25:10;;;;;;;33.75;31.75;;;;;;;17.36;100.00;101011.22;5096658;28;20044;-75
2024/04/04 07:27:36;;;;;;;30.95;29.00;;;;;;;17.09;100.00;101010.22;5089137;28;20040;-76
2024/04/04 07:30:03;;;;;;;31.48;29.48;;;;;;;17.67;100.00;101006.34;5089060;28;20086;-75
2024/04/04 07:32:31;;;;;;;35.08;32.97;;;;;;;17.40;100.00;100996.25;5087870;28;20044;-76
2024/04/04 07:35:06;;;;;;;37.08;34.88;;;;;;;17.91;100.00;101003.47;5101306;28;20043;-75
2024/04/04 07:37:32;;;;;;;34.03;32.03;;;;;;;18.28;100.00;100999.13;5098380;28;20052;-75
2024/04/04 07:40:04;;;;;;;35.92;33.83;;;;;;;18.44;100.00;101000.13;5098286;28;20053;-76
2024/04/04 07:42:35;;;;;;;32.78;30.77;;;;;;;18.56;100.00;101002.69;5089481;28;20780;-76
2024/04/04 07:45:03;;;;;;;37.40;35.30;;;;;;;17.89;100.00;101009.09;5096969;28;20498;-75
2024/04/04 07:47:29;;;;;;;33.97;31.88;;;;;;;17.39;100.00;101015.28;5110108;28;20047;-77
2024/04/04 07:49:59;;;;;;;34.40;32.40;;;;;;;18.52;100.00;100998.88;5101445;28;20127;-75
2024/04/04 07:52:26;;;;;;;34.03;32.03;;;;;;;18.11;100.00;101009.13;5098166;28;20051;-76
2024/04/04 07:54:54;;;;;;;33.28;31.27;;;;;;;18.39;100.00;101000.06;5097167;28;20056;-75
2024/04/04 07:57:23;;;;;;;32.47;30.58;;;;;;;18.88;100.00;101001.97;5101583;28;20109;-77
2024/04/04 07:59:49;;;;;;;36.05;34.05;;;;;;;18.93;100.00;101010.09;5093755;28;20048;-77
2024/04/04 08:02:18;;;;;;;35.05;33.15;;;;;;;19.43;100.00;100998.16;5100322;28;20074;-78
2024/04/04 08:04:46;;;;;;;36.72;34.45;;;;;;;19.77;100.00;100998.69;5094242;28;20503;-78
2024/04/04 08:07:15;;;;;;;36.83;34.47;;;;;;;18.91;100.00;100996.06;5097516;28;20056;-78
2024/04/04 08:09:41;;;;;;;33.47;31.17;;;;;;;19.30;100.00;100999.38;5092705;28;20123;-78
2024/04/04 08:12:09;;;;;;;33.88;31.67;;;;;;;19.62;100.00;101007.44;5100346;28;20054;-77
2024/04/04 08:14:36;;;;;;;32.42;30.15;;;;;;;19.20;100.00;100994.72;5097671;28;20101;-75
2024/04/04 08:17:03;;;;;;;32.95;30.75;;;;;;;19.70;100.00;100992.72;5101964;28;20059;-75
2024/04/04 08:19:30;;;;;;;39.03;36.42;;;;;;;19.60;100.00;100990.72;5096351;28;20053;-75
2024/04/04 08:21:57;;;;;;;36.95;34.55;;;;;;;20.25;100.00;100988.69;5100839;28;20054;-78
2024/04/04 08:24:23;;;;;;;34.50;32.10;;;;;;;20.32;100.00;100983.03;5101292;28;20442;-78
2024/04/04 08:26:50;;;;;;;35.42;33.13;;;;;;;20.53;100.00;100983.94;5105420;28;20190;-78
2024/04/04 08:29:16;;;;;;;33.75;31.65;;;;;;;21.09;100.00;100984.03;5093079;28;20568;-77
2024/04/04 08:31:52;;;;;;;40.40;38.10;;;;;;;21.10;100.00;100977.56;5095080;28;20051;-77
2024/04/04 08:34:32;;;;;;;42.55;40.15;;;;;;;21.67;100.00;100983.75;5090674;28;20048;-77
2024/04/04 08:37:00;;;;;;;42.63;40.20;;;;;;;21.62;86.98;100979.16;5096232;28;20431;-78
2024/04/04 08:39:27;;;;;;;47.17;44.47;;;;;;;21.45;90.02;100984.03;5096795;28;20109;-78
2024/04/04 08:41:56;;;;;;;40.88;38.33;;;;;;;22.11;100.00;100986.56;5096945;28;20052;-78
2024/04/04 08:44:23;;;;;;;41.90;39.00;;;;;;;20.43;71.85;100990.09;5105306;28;20039;-77
2024/04/04 08:47:10;;;;;;;39.55;36.85;;;;;;;20.09;81.15;100997.75;5091575;28;20079;-78
2024/04/04 08:49:39;;;;;;;40.15;36.90;;;;;;;20.89;93.55;100984.00;5100057;28;20047;-76
2024/04/04 08:52:14;;;;;;;36.90;34.50;;;;;;;20.22;100.00;100991.09;5095748;28;20063;-75
2024/04/04 08:54:55;;;;;;;38.92;36.42;;;;;;;20.05;97.76;100991.28;5099491;28;20040;-75
2024/04/04 08:57:24;;;;;;;44.40;41.70;;;;;;;20.96;82.14;100988.06;5079037;28;20087;-75
2024/04/04 09:00:00;;;;;;;36.03;33.60;;;;;;;22.39;72.19;100985.16;5097976;28;20044;-76
2024/04/04 09:02:28;;;;;;;44.85;41.95;;;;;;;21.23;82.72;100989.69;5089724;28;20047;-78
2024/04/04 09:05:03;;;;;;;33.00;30.50;;;;;;;21.15;61.35;100987.53;5098333;28;20451;-78
2024/04/04 09:07:39;;;;;;;34.65;32.35;;;;;;;21.03;72.96;100977.81;5097379;28;20105;-78
2024/04/04 09:10:14;;;;;;;44.00;41.20;;;;;;;21.11;65.49;100973.75;5095641;28;20056;-77
2024/04/04 09:12:43;;;;;;;38.97;36.47;;;;;;;21.11;61.87;100973.75;5094052;28;20056;-77
2024/04/04 09:15:10;;;;;;;41.63;39.03;;;;;;;20.74;72.84;100972.13;5103504;28;20059;-76
2024/04/04 09:17:39;;;;;;;38.90;36.20;;;;;;;21.45;82.91;100982.16;5107974;28;20061;-76
2024/04/04 09:20:06;;;;;;;39.03;36.38;;;;;;;20.69;99.00;100976.69;5089993;28;20491;-76
2024/04/04 09:22:34;;;;;;;41.88;39.08;;;;;;;20.96;82.67;100977.25;5093233;28;20497;-75
2024/04/04 09:25:02;;;;;;;41.90;39.05;;;;;;;22.04;59.06;100982.56;5089982;28;20050;-75
2024/04/04 09:27:29;;;;;;;56.40;52.92;;;;;;;21.68;85.19;100971.84;5084305;28;20052;-76
2024/04/04 09:29:56;;;;;;;42.70;39.83;;;;;;;21.98;68.25;100979.06;5092456;28;20059;-78
2024/04/04 09:32:24;;;;;;;41.92;38.83;;;;;;;21.33;48.96;100984.31;5108854;28;20105;-78
2024/04/04 09:34:53;;;;;;;43.28;40.17;;;;;;;20.52;50.54;100991.22;5105749;28;20051;-78
2024/04/04 09:37:22;;;;;;;38.85;35.97;;;;;;;20.35;78.33;100990.59;5097710;28;20498;-77
2024/04/04 09:39:50;;;;;;;40.97;37.88;;;;;;;20.53;57.08;100992.84;5100862;28;20799;-75
2024/04/04 09:42:20;;;;;;;41.10;37.95;;;;;;;20.15;59.74;100999.41;5096364;28;20052;-76
2024/04/04 09:44:48;;;;;;;39.75;36.85;;;;;;;20.08;62.78;101001.53;5097555;28;20094;-76
2024/04/04 09:47:15;;;;;;;34.90;32.40;;;;;;;21.38;66.89;101002.41;5089012;28;20060;-75
2024/04/04 09:49:44;;;;;;;38.75;35.80;;;;;;;21.20;57.43;100993.75;5095661;28;20051;-78
2024/04/04 09:52:12;;;;;;;48.40;45.00;;;;;;;20.85;51.72;100999.09;5105579;27;20108;-75
2024/04/04 09:54:40;;;;;;;42.40;39.30;;;;;;;21.18;69.92;100995.94;5100396;28;20044;-76
2024/04/04 09:57:06;;;;;;;44.28;41.05;;;;;;;21.39;72.47;101001.34;5090936;28;20048;-76
2024/04/04 09:59:34;;;;;;;42.13;39.03;;;;;;;21.84;60.71;100999.66;5098982;28;20086;-75
2024/04/04 10:02:05;;;;;;;40.47;37.45;;;;;;;20.87;71.53;101005.88;5098486;28;20055;-75
2024/04/04 10:04:36;;;;;;;40.05;37.08;;;;;;;20.68;83.22;101002.88;5097525;28;20083;-77
2024/04/04 10:07:04;;;;;;;41.92;38.33;;;;;;;20.53;96.38;101000.13;5092972;28;20097;-76
2024/04/04 10:09:39;;;;;;;41.45;38.45;;;;;;;20.86;76.19;100992.66;5105965;28;20043;-75
2024/04/04 10:12:13;;;;;;;55.65;52.10;;;;;;;21.36;91.81;100991.06;5098526;28;20451;-78
2024/04/04 10:14:50;;;;;;;63.10;59.40;;;;;;;21.34;63.07;100985.91;5099719;28;20048;-75
2024/04/04 10:17:16;;;;;;;59.58;56.17;;;;;;;21.14;97.11;100988.63;5099494;28;20052;-77
2024/04/04 10:19:46;;;;;;;59.50;56.00;;;;;;;21.23;67.88;100984.28;5096796;28;20055;-78
2024/04/04 10:22:14;;;;;;;41.40;38.70;;;;;;;21.61;85.88;100982.94;5091261;28;20056;-78
2024/04/04 10:24:43;;;;;;;40.25;37.55;;;;;;;22.09;54.96;100986.06;5102894;28;20412;-77
2024/04/04 10:27:12;;;;;;;46.65;43.75;;;;;;;21.08;53.38;100976.19;5101406;28;20058;-77
2024/04/04 10:29:50;;;;;;;50.30;47.15;;;;;;;21.47;57.18;100982.69;5098081;28;20051;-77
2024/04/04 10:32:28;;;;;;;78.78;74.40;;;;;;;22.23;70.88;100985.47;5104247;28;20529;-75
2024/04/04 10:35:04;;;;;;;60.60;57.00;;;;;;;23.12;66.04;100982.78;5079710;28;20193;-75
2024/04/04 10:37:32;;;;;;;49.38;46.28;;;;;;;22.40;56.92;100977.84;5104430;28;20051;-76
2024/04/04 10:40:01;;;;;;;38.65;36.15;;;;;;;22.54;78.49;100986.13;5094662;28;20086;-75
2024/04/04 10:42:27;;;;;;;39.20;36.45;;;;;;;22.62;56.21;100983.66;5095277;28;20701;-75
2024/04/04 10:44:55;;;;;;;42.97;40.17;;;;;;;22.34;65.11;100987.88;5093309;28;20106;-76
2024/04/04 10:47:22;;;;;;;41.17;38.38;;;;;;;21.71;73.08;100985.63;5088980;28;20106;-77
2024/04/04 10:49:51;;;;;;;38.45;35.75;;;;;;;21.53;57.19;100994.31;5092146;28;20127;-78
2024/04/04 10:52:18;;;;;;;36.70;34.20;;;;;;;21.55;65.75;100994.84;5097359;28;20787;-77
2024/04/04 10:54:49;;;;;;;36.63;34.13;;;;;;;21.37;88.93;100987.31;5102357;28;20768;-77
2024/04/04 10:57:16;;;;;;;34.85;32.55;;;;;;;21.12;73.10;100988.91;5094949;28;20097;-78
2024/04/04 10:59:43;;;;;;;32.13;30.02;;;;;;;21.15;98.33;100987.53;5092797;28;20047;-78
2024/04/04 11:02:12;;;;;;;33.78;31.58;;;;;;;21.55;73.88;100994.84;5088773;28;20052;-78
2024/04/04 11:04:50;;;;;;;33.42;31.23;;;;;;;21.28;75.39;100990.50;5090343;28;20056;-77
2024/04/04 11:07:17;;;;;;;35.05;32.65;;;;;;;21.13;80.13;100992.41;5091888;28;20496;-78
2024/04/04 11:09:45;;;;;;;33.45;31.10;;;;;;;20.73;82.73;100996.69;5097039;28;20054;-77
2024/04/04 11:12:15;;;;;;;31.63;29.33;;;;;;;20.53;100.00;100995.53;5102816;28;20541;-78
2024/04/04 11:14:43;;;;;;;31.55;29.35;;;;;;;20.58;100.00;100997.44;5095304;28;20500;-77